createdAt,value
2023-02-17T06:34:52.182Z,60.91
2023-02-17T06:35:51.896Z,61.07
2023-02-17T06:36:52.126Z,60.10
2023-02-17T06:37:51.892Z,61.07
2023-02-17T06:42:11.797Z,58.65
2023-02-17T06:43:19.294Z,60.59
2023-02-17T06:44:11.783Z,60.42
2023-02-17T06:45:11.589Z,60.26
2023-02-17T06:46:13.236Z,60.91
2023-02-17T06:51:22.514Z,59.94
2023-02-17T06:52:22.394Z,59.14
2023-02-17T06:53:22.273Z,59.62
2023-02-17T06:54:23.395Z,58.33
2023-02-17T06:55:23.357Z,59.30
2023-02-17T06:56:23.376Z,59.14
2023-02-17T06:57:23.946Z,59.30
2023-02-17T06:58:23.441Z,60.10
2023-02-17T06:59:23.287Z,59.62
2023-02-17T07:00:23.256Z,58.33
2023-02-17T07:01:23.421Z,56.24
2023-02-17T07:02:23.611Z,58.33
2023-02-17T07:03:23.268Z,56.88
2023-02-17T07:04:23.299Z,58.81
2023-02-17T07:05:23.434Z,59.78
2023-02-17T07:06:23.179Z,58.17
2023-02-17T07:07:23.811Z,56.24
2023-02-17T07:08:23.858Z,58.17
2023-02-17T07:09:23.221Z,57.85
2023-02-17T07:10:23.184Z,57.04
2023-02-17T07:11:23.724Z,56.56
2023-02-17T07:12:23.190Z,56.88
2023-02-17T07:13:23.243Z,57.85
2023-02-17T07:14:24.957Z,61.39
2023-02-17T07:15:24.220Z,56.88
2023-02-17T07:16:26.825Z,58.01
2023-02-17T07:17:24.371Z,56.88
2023-02-17T07:18:23.069Z,58.01
2023-02-17T07:19:24.532Z,58.81
2023-02-17T07:20:24.622Z,56.88
2023-02-17T07:21:23.727Z,54.62
2023-02-17T07:22:23.384Z,55.59
2023-02-17T07:23:23.100Z,58.65
2023-02-17T07:24:23.289Z,58.01
2023-02-17T07:25:23.159Z,57.85
2023-02-17T07:26:23.178Z,56.56
2023-02-17T07:27:23.028Z,57.36
2023-02-17T07:28:23.022Z,57.85
2023-02-17T07:29:25.956Z,56.24
2023-02-17T07:30:23.196Z,58.65
2023-02-17T07:31:23.183Z,55.59
2023-02-17T07:32:22.952Z,56.07
2023-02-17T07:33:23.086Z,58.01
2023-02-17T07:34:22.941Z,57.36
2023-02-17T07:35:22.975Z,59.46
2023-02-17T07:38:51.972Z,59.14
2023-02-17T07:39:53.942Z,58.65
2023-02-17T07:40:53.321Z,57.36
2023-02-17T07:41:53.665Z,56.56
2023-02-17T07:42:53.061Z,57.69
2023-02-17T07:43:53.754Z,57.04
2023-02-17T07:44:54.732Z,59.30
2023-02-17T07:45:53.089Z,59.46
2023-02-17T07:46:53.114Z,60.75
2023-02-17T07:47:53.078Z,56.40
2023-02-17T07:48:52.916Z,56.24
2023-02-17T07:49:53.856Z,55.43
2023-02-17T07:50:53.374Z,57.36
2023-02-17T07:51:53.156Z,56.72
2023-02-17T07:52:53.339Z,59.30
2023-02-17T07:53:52.955Z,59.46
2023-02-17T07:54:52.875Z,57.85
2023-02-17T07:55:52.900Z,57.69
2023-02-17T07:56:56.104Z,58.65
2023-02-17T07:57:52.842Z,56.88
2023-02-17T07:58:53.453Z,58.33
2023-02-17T07:59:52.812Z,57.69
2023-02-17T08:00:52.960Z,53.98
2023-02-17T08:01:53.476Z,54.79
2023-02-17T08:02:53.457Z,56.40
2023-02-17T08:03:52.971Z,56.88
2023-02-17T08:04:52.798Z,56.56
2023-02-17T08:05:52.791Z,59.46
2023-02-17T08:06:52.755Z,57.69
2023-02-17T08:07:52.820Z,57.69
2023-02-17T08:09:25.563Z,57.20
2023-02-17T08:09:53.178Z,58.33
2023-02-17T08:10:53.818Z,55.75
2023-02-17T08:11:55.275Z,54.79
2023-02-17T08:12:52.745Z,58.81
2023-02-17T08:13:54.370Z,58.81
2023-02-17T08:14:58.825Z,58.01
2023-02-17T08:16:24.944Z,59.30
2023-02-17T08:16:56.598Z,56.24
2023-02-17T08:17:52.787Z,58.49
2023-02-17T08:18:53.171Z,56.88
2023-02-17T08:19:52.687Z,53.98
2023-02-17T08:20:53.030Z,58.49
2023-02-17T08:22:33.982Z,56.88
2023-02-17T08:22:53.454Z,60.91
2023-02-17T08:23:57.123Z,56.07
2023-02-17T08:24:54.099Z,52.69
2023-02-17T08:25:52.566Z,56.72
2023-02-17T08:26:54.356Z,59.14
2023-02-17T08:27:52.962Z,60.10
2023-02-17T08:28:53.080Z,60.91
2023-02-17T08:29:55.608Z,57.69
2023-02-17T08:30:54.006Z,58.81
2023-02-17T08:31:52.846Z,58.33
2023-02-17T08:32:54.535Z,59.14
2023-02-17T08:33:52.668Z,60.42
2023-02-17T08:34:53.177Z,57.36
2023-02-17T08:36:27.011Z,59.94
2023-02-17T08:36:55.378Z,58.65
2023-02-17T08:38:27.814Z,56.72
2023-02-17T08:38:53.490Z,60.91
2023-02-17T08:39:52.619Z,59.30
2023-02-17T08:40:55.246Z,58.33
2023-02-17T08:41:53.791Z,61.71
2023-02-17T08:42:52.625Z,61.55
2023-02-17T08:43:52.570Z,59.30
2023-02-17T09:03:36.630Z,58.65
2023-02-17T09:04:34.702Z,60.42
2023-02-17T09:05:35.459Z,61.07
2023-02-17T09:18:46.703Z,57.85
2023-02-17T09:19:09.263Z,56.24
2023-02-17T09:20:24.043Z,56.88
2023-02-17T09:21:10.128Z,58.33
2023-02-17T09:22:08.435Z,59.30
2023-02-17T09:23:10.449Z,62.36
2023-02-17T09:24:08.589Z,58.97
2023-02-17T09:25:10.317Z,58.17
2023-02-17T09:26:10.267Z,58.33
2023-02-17T09:27:09.882Z,59.62
2023-02-17T09:28:10.399Z,59.94
2023-02-17T09:29:08.292Z,58.81
2023-02-17T09:30:43.358Z,58.33
2023-02-17T09:31:09.205Z,59.46
2023-02-17T09:32:10.475Z,61.07
2023-02-17T09:33:08.831Z,61.23
2023-02-17T09:34:09.484Z,58.33
2023-02-17T09:35:09.804Z,61.55
2023-02-17T09:36:09.102Z,59.62
2023-02-17T09:37:09.081Z,60.59
2023-02-17T09:38:09.751Z,61.71
2023-02-17T09:39:10.332Z,61.07
2023-02-17T09:40:09.928Z,58.49
2023-02-17T09:41:09.138Z,60.75
2023-02-17T09:42:11.438Z,60.91
2023-02-17T09:43:08.052Z,61.55
2023-02-17T09:44:21.673Z,56.56
2023-02-17T09:45:11.822Z,60.10
2023-02-17T09:46:11.797Z,60.10
2023-02-17T09:47:08.094Z,60.42
2023-02-17T09:48:13.538Z,58.81
2023-02-17T09:49:08.730Z,61.07
2023-02-17T09:50:10.394Z,61.23
2023-02-17T09:51:08.362Z,57.69
2023-02-17T09:52:08.891Z,59.46
2023-02-17T09:53:08.669Z,60.59
2023-02-17T09:54:09.699Z,59.78
2023-02-17T09:55:10.033Z,61.07
2023-02-17T09:56:09.678Z,57.36
2023-02-17T09:57:07.974Z,57.20
2023-02-17T09:58:08.869Z,59.14
2023-02-17T09:59:08.136Z,62.36
2023-02-17T10:00:13.059Z,60.91
2023-02-17T10:01:14.652Z,61.39
2023-02-17T10:02:07.742Z,58.65
2023-02-17T10:03:07.658Z,59.94
2023-02-17T10:04:07.833Z,60.26
2023-02-17T10:05:08.489Z,61.39
2023-02-17T10:06:08.619Z,59.30
2023-02-17T10:07:10.341Z,58.49
2023-02-17T10:08:43.425Z,63.49
2023-02-17T10:09:12.902Z,58.81
2023-02-17T10:10:09.159Z,59.94
2023-02-17T10:11:08.654Z,61.39
2023-02-17T10:12:08.741Z,61.23
2023-02-17T10:13:09.642Z,59.78
2023-02-17T10:14:14.759Z,59.46
2023-02-17T10:15:07.888Z,60.91
2023-02-17T10:16:08.494Z,59.14
2023-02-17T10:17:07.856Z,60.42
2023-02-17T10:18:46.078Z,57.85
2023-02-17T10:19:12.846Z,65.26
2023-02-17T10:20:13.663Z,61.55
2023-02-17T10:21:07.560Z,60.10
2023-02-17T10:22:10.746Z,58.81
2023-02-17T10:23:08.474Z,60.91
2023-02-17T10:24:08.095Z,59.30
2023-02-17T10:25:08.118Z,61.71
2023-02-17T10:26:08.964Z,61.55
2023-02-17T10:27:09.642Z,63.16
2023-02-17T10:28:07.862Z,61.39
2023-02-17T10:29:07.420Z,61.23
2023-02-17T10:30:07.743Z,63.00
2023-02-17T10:31:07.644Z,62.36
2023-02-17T10:32:07.806Z,61.23
2023-02-17T10:33:09.381Z,61.39
2023-02-17T10:34:08.712Z,63.00
2023-02-17T10:35:08.035Z,63.65
2023-02-17T10:36:10.469Z,63.00
2023-02-17T10:37:08.240Z,61.39
2023-02-17T10:38:09.304Z,62.68
2023-02-17T10:39:07.874Z,63.33
2023-02-17T10:40:07.643Z,63.97
2023-02-17T10:41:07.713Z,62.36
2023-02-17T10:42:07.207Z,62.68
2023-02-17T10:43:07.966Z,62.52
2023-02-17T10:44:11.041Z,65.42
2023-02-17T10:45:08.492Z,63.65
2023-02-17T10:46:11.900Z,62.68
2023-02-17T10:47:07.873Z,61.87
2023-02-17T10:48:07.510Z,62.52
2023-02-17T10:49:08.476Z,62.04
2023-02-17T10:50:09.169Z,61.39
2023-02-17T10:51:07.524Z,60.42
2023-02-17T10:52:14.617Z,60.75
2023-02-17T10:53:08.346Z,64.78
2023-02-17T10:54:07.624Z,63.65
2023-02-17T10:55:21.984Z,62.84
2023-02-17T10:56:09.755Z,62.84
2023-02-17T10:57:07.779Z,63.33
2023-02-17T10:58:11.158Z,62.84
2023-02-17T10:59:07.104Z,60.75
2023-02-17T11:00:08.013Z,62.52
2023-02-17T11:01:08.142Z,62.84
2023-02-17T11:02:07.533Z,60.91
2023-02-17T11:03:11.991Z,59.46
2023-02-17T11:04:10.614Z,61.39
2023-02-17T11:05:07.311Z,62.04
2023-02-17T11:06:14.375Z,63.49
2023-02-17T11:07:11.273Z,60.91
2023-02-17T11:08:07.500Z,60.26
2023-02-17T11:09:10.280Z,63.00
2023-02-17T11:10:10.553Z,60.59
2023-02-17T11:11:08.509Z,60.91
2023-02-17T11:12:07.532Z,63.49
2023-02-17T11:13:17.903Z,60.91
2023-02-17T11:14:10.189Z,61.71
2023-02-17T11:15:07.198Z,62.20
2023-02-17T11:16:15.099Z,61.39
2023-02-17T11:17:08.682Z,60.91
2023-02-17T11:18:08.381Z,63.16
2023-02-17T11:19:07.696Z,64.94
2023-02-17T11:20:08.081Z,62.52
2023-02-17T11:21:09.654Z,62.68
2023-02-17T11:22:07.547Z,62.36
2023-02-17T11:23:08.199Z,62.52
2023-02-17T11:24:13.264Z,61.39
2023-02-17T11:25:12.333Z,61.71
2023-02-17T11:26:09.024Z,60.26
2023-02-17T11:27:07.436Z,61.71
2023-02-17T11:28:08.820Z,60.26
2023-02-17T11:29:07.299Z,64.94
2023-02-17T11:30:48.684Z,61.87
2023-02-17T11:31:07.774Z,60.10
2023-02-17T11:32:08.538Z,58.81
2023-02-17T11:33:10.329Z,62.68
2023-02-17T11:34:10.419Z,61.07
2023-02-17T11:35:16.449Z,61.39
2023-02-17T11:36:10.404Z,61.87
2023-02-17T11:37:08.004Z,59.46
2023-02-17T11:38:14.302Z,60.59
2023-02-17T11:39:10.458Z,59.78
2023-02-17T11:40:07.230Z,60.91
2023-02-17T11:41:07.304Z,61.23
2023-02-17T11:42:18.416Z,60.59
2023-02-17T11:43:08.676Z,59.94
2023-02-17T11:44:07.060Z,63.00
2023-02-17T11:45:07.104Z,63.00
2023-02-17T11:46:12.888Z,61.39
2023-02-17T11:47:09.312Z,62.04
2023-02-17T11:48:09.732Z,59.62
2023-02-17T11:49:07.323Z,60.75
2023-02-17T11:50:09.503Z,63.00
2023-02-17T11:51:07.026Z,65.10
2023-02-17T11:52:07.045Z,62.52
2023-02-17T11:53:08.900Z,62.04
2023-02-17T11:54:07.116Z,61.07
2023-02-17T11:55:06.929Z,62.36
2023-02-17T11:56:07.758Z,59.78
2023-02-17T11:57:07.000Z,60.75
2023-02-17T11:58:08.168Z,61.23
2023-02-17T11:59:08.085Z,61.87
2023-02-17T12:00:06.852Z,60.26
2023-02-17T12:01:08.570Z,61.39
2023-02-17T12:02:08.452Z,63.81
2023-02-17T12:03:07.434Z,60.10
2023-02-17T12:04:07.166Z,61.71
2023-02-17T12:05:07.867Z,60.91
2023-02-17T12:06:07.367Z,62.20
2023-02-17T12:07:13.438Z,61.23
2023-02-17T12:08:07.270Z,61.87
2023-02-17T12:09:07.154Z,57.85
2023-02-17T12:10:07.759Z,60.59
2023-02-17T12:11:08.434Z,60.26
2023-02-17T12:12:08.923Z,60.75
2023-02-17T12:13:07.322Z,61.71
2023-02-17T12:14:11.611Z,62.04
2023-02-17T12:15:07.823Z,61.55
2023-02-17T12:16:06.740Z,61.07
2023-02-17T12:17:09.972Z,61.07
2023-02-17T12:18:09.723Z,59.62
2023-02-17T12:19:08.886Z,62.84
2023-02-17T12:20:09.975Z,60.59
2023-02-17T12:21:10.693Z,60.10
2023-02-17T12:22:06.525Z,59.78
2023-02-17T12:23:07.521Z,63.00
2023-02-17T12:24:06.477Z,60.91
2023-02-17T12:25:07.821Z,61.71
2023-02-17T12:26:07.974Z,61.87
2023-02-17T12:27:06.325Z,60.91
2023-02-17T12:28:10.276Z,60.91
2023-02-17T12:29:09.805Z,59.46
2023-02-17T12:30:08.625Z,62.68
2023-02-17T12:31:12.139Z,60.42
2023-02-17T12:32:11.402Z,63.65
2023-02-17T12:33:10.459Z,59.94
